sensor_id;sensor_type;location;lat;lon;timestamp;P1;durP1;ratioP1;P2;durP2;ratioP2
17199;SDS011;8716;52.268;20.968;2023-04-01T00:01:40;7.40;;;6.60;;
17199;SDS011;8716;52.268;20.968;2023-04-01T00:04:08;7.50;;;7.10;;
17199;SDS011;8716;52.268;20.968;2023-04-01T00:06:37;5.40;;;5.10;;
17199;SDS011;8716;52.268;20.968;2023-04-01T00:09:05;7.83;;;7.37;;
17199;SDS011;8716;52.268;20.968;2023-04-01T00:11:36;8.27;;;7.87;;
17199;SDS011;8716;52.268;20.968;2023-04-01T00:14:04;6.43;;;6.03;;
17199;SDS011;8716;52.268;20.968;2023-04-01T00:16:33;7.60;;;7.20;;
17199;SDS011;8716;52.268;20.968;2023-04-01T00:19:03;4.93;;;4.63;;
17199;SDS011;8716;52.268;20.968;2023-04-01T00:21:31;6.80;;;6.27;;
17199;SDS011;8716;52.268;20.968;2023-04-01T00:24:03;6.10;;;5.80;;
17199;SDS011;8716;52.268;20.968;2023-04-01T00:26:31;6.50;;;6.13;;
17199;SDS011;8716;52.268;20.968;2023-04-01T00:28:59;5.27;;;4.97;;
17199;SDS011;8716;52.268;20.968;2023-04-01T00:31:28;6.90;;;6.50;;
17199;SDS011;8716;52.268;20.968;2023-04-01T00:33:56;7.63;;;5.83;;
17199;SDS011;8716;52.268;20.968;2023-04-01T00:36:26;5.10;;;4.80;;
17199;SDS011;8716;52.268;20.968;2023-04-01T00:38:55;4.70;;;4.50;;
17199;SDS011;8716;52.268;20.968;2023-04-01T00:41:25;5.70;;;5.40;;
17199;SDS011;8716;52.268;20.968;2023-04-01T00:46:45;9.37;;;8.87;;
17199;SDS011;8716;52.268;20.968;2023-04-01T00:49:14;6.57;;;6.17;;
17199;SDS011;8716;52.268;20.968;2023-04-01T00:51:46;9.53;;;5.30;;
17199;SDS011;8716;52.268;20.968;2023-04-01T00:54:18;8.73;;;5.90;;
17199;SDS011;8716;52.268;20.968;2023-04-01T00:56:48;6.23;;;5.90;;
17199;SDS011;8716;52.268;20.968;2023-04-01T00:59:23;7.93;;;7.53;;
17199;SDS011;8716;52.268;20.968;2023-04-01T01:01:54;6.07;;;5.73;;
17199;SDS011;8716;52.268;20.968;2023-04-01T01:04:23;6.10;;;5.70;;
17199;SDS011;8716;52.268;20.968;2023-04-01T01:06:56;6.77;;;6.37;;
17199;SDS011;8716;52.268;20.968;2023-04-01T01:09:38;8.07;;;7.30;;
17199;SDS011;8716;52.268;20.968;2023-04-01T01:12:13;8.73;;;8.07;;
17199;SDS011;8716;52.268;20.968;2023-04-01T01:14:50;8.00;;;7.10;;
17199;SDS011;8716;52.268;20.968;2023-04-01T01:17:26;10.73;;;7.63;;
17199;SDS011;8716;52.268;20.968;2023-04-01T01:23:20;6.33;;;5.97;;
17199;SDS011;8716;52.268;20.968;2023-04-01T01:26:09;9.50;;;9.00;;
17199;SDS011;8716;52.268;20.968;2023-04-01T01:29:01;8.87;;;8.37;;
17199;SDS011;8716;52.268;20.968;2023-04-01T01:31:41;5.50;;;5.20;;
17199;SDS011;8716;52.268;20.968;2023-04-01T01:34:15;6.00;;;5.53;;
17199;SDS011;8716;52.268;20.968;2023-04-01T01:36:53;6.80;;;6.40;;
17199;SDS011;8716;52.268;20.968;2023-04-01T01:39:28;5.10;;;4.80;;
17199;SDS011;8716;52.268;20.968;2023-04-01T01:42:00;5.80;;;5.50;;
17199;SDS011;8716;52.268;20.968;2023-04-01T01:44:31;7.30;;;6.90;;
17199;SDS011;8716;52.268;20.968;2023-04-01T01:47:02;6.30;;;5.93;;
17199;SDS011;8716;52.268;20.968;2023-04-01T01:49:32;6.70;;;6.30;;
17199;SDS011;8716;52.268;20.968;2023-04-01T01:52:04;9.40;;;8.53;;
17199;SDS011;8716;52.268;20.968;2023-04-01T01:54:32;4.67;;;4.37;;
17199;SDS011;8716;52.268;20.968;2023-04-01T01:57:02;5.83;;;5.53;;
17199;SDS011;8716;52.268;20.968;2023-04-01T01:59:35;7.17;;;6.77;;
17199;SDS011;8716;52.268;20.968;2023-04-01T02:02:07;6.23;;;5.73;;
17199;SDS011;8716;52.268;20.968;2023-04-01T02:04:38;8.47;;;8.00;;
17199;SDS011;8716;52.268;20.968;2023-04-01T02:07:12;8.33;;;7.60;;
17199;SDS011;8716;52.268;20.968;2023-04-01T02:09:44;9.83;;;9.33;;
17199;SDS011;8716;52.268;20.968;2023-04-01T02:12:13;6.40;;;5.90;;
17199;SDS011;8716;52.268;20.968;2023-04-01T02:14:45;10.50;;;8.97;;
17199;SDS011;8716;52.268;20.968;2023-04-01T02:17:17;11.30;;;10.70;;
17199;SDS011;8716;52.268;20.968;2023-04-01T02:19:48;14.53;;;9.90;;
17199;SDS011;8716;52.268;20.968;2023-04-01T02:22:25;8.47;;;8.00;;
17199;SDS011;8716;52.268;20.968;2023-04-01T02:24:57;11.43;;;10.83;;
17199;SDS011;8716;52.268;20.968;2023-04-01T02:27:32;10.20;;;9.67;;
17199;SDS011;8716;52.268;20.968;2023-04-01T02:30:01;10.30;;;6.73;;
17199;SDS011;8716;52.268;20.968;2023-04-01T02:32:30;8.60;;;7.80;;
17199;SDS011;8716;52.268;20.968;2023-04-01T02:35:00;11.07;;;10.47;;
17199;SDS011;8716;52.268;20.968;2023-04-01T02:37:33;8.70;;;8.20;;
17199;SDS011;8716;52.268;20.968;2023-04-01T02:40:05;8.00;;;7.60;;
17199;SDS011;8716;52.268;20.968;2023-04-01T02:42:36;8.93;;;8.43;;
17199;SDS011;8716;52.268;20.968;2023-04-01T02:45:05;5.10;;;4.80;;
17199;SDS011;8716;52.268;20.968;2023-04-01T02:47:34;9.43;;;8.93;;
17199;SDS011;8716;52.268;20.968;2023-04-01T02:50:03;15.97;;;13.10;;
17199;SDS011;8716;52.268;20.968;2023-04-01T02:52:34;11.23;;;8.37;;
17199;SDS011;8716;52.268;20.968;2023-04-01T02:55:02;9.23;;;8.73;;
17199;SDS011;8716;52.268;20.968;2023-04-01T02:57:34;18.23;;;10.50;;
17199;SDS011;8716;52.268;20.968;2023-04-01T03:00:03;11.83;;;11.23;;
17199;SDS011;8716;52.268;20.968;2023-04-01T03:02:37;7.90;;;7.50;;
17199;SDS011;8716;52.268;20.968;2023-04-01T03:05:06;8.77;;;8.27;;
17199;SDS011;8716;52.268;20.968;2023-04-01T03:07:36;13.90;;;10.23;;
17199;SDS011;8716;52.268;20.968;2023-04-01T03:10:05;10.37;;;9.87;;
17199;SDS011;8716;52.268;20.968;2023-04-01T03:12:34;9.30;;;8.80;;
17199;SDS011;8716;52.268;20.968;2023-04-01T03:15:03;10.17;;;9.67;;
17199;SDS011;8716;52.268;20.968;2023-04-01T03:17:38;10.20;;;9.70;;
17199;SDS011;8716;52.268;20.968;2023-04-01T03:20:07;16.13;;;13.47;;
17199;SDS011;8716;52.268;20.968;2023-04-01T03:22:38;8.40;;;7.93;;
17199;SDS011;8716;52.268;20.968;2023-04-01T03:25:08;12.10;;;11.50;;
17199;SDS011;8716;52.268;20.968;2023-04-01T03:27:38;9.23;;;8.73;;
17199;SDS011;8716;52.268;20.968;2023-04-01T03:30:08;10.67;;;9.20;;
17199;SDS011;8716;52.268;20.968;2023-04-01T03:32:45;7.20;;;6.80;;
17199;SDS011;8716;52.268;20.968;2023-04-01T03:35:14;10.10;;;8.77;;
17199;SDS011;8716;52.268;20.968;2023-04-01T03:37:45;13.47;;;12.77;;
17199;SDS011;8716;52.268;20.968;2023-04-01T03:40:14;15.30;;;14.50;;
17199;SDS011;8716;52.268;20.968;2023-04-01T03:42:42;11.77;;;8.47;;
17199;SDS011;8716;52.268;20.968;2023-04-01T03:45:11;15.33;;;9.53;;
17199;SDS011;8716;52.268;20.968;2023-04-01T03:47:40;10.57;;;10.00;;
17199;SDS011;8716;52.268;20.968;2023-04-01T03:50:08;10.23;;;9.70;;
17199;SDS011;8716;52.268;20.968;2023-04-01T03:52:37;9.80;;;9.30;;
17199;SDS011;8716;52.268;20.968;2023-04-01T03:55:08;13.57;;;8.33;;
17199;SDS011;8716;52.268;20.968;2023-04-01T03:57:38;11.23;;;10.63;;
17199;SDS011;8716;52.268;20.968;2023-04-01T04:00:14;7.80;;;7.40;;
17199;SDS011;8716;52.268;20.968;2023-04-01T04:02:47;10.10;;;9.60;;
17199;SDS011;8716;52.268;20.968;2023-04-01T04:05:20;11.17;;;9.40;;
17199;SDS011;8716;52.268;20.968;2023-04-01T04:07:48;7.47;;;7.07;;
17199;SDS011;8716;52.268;20.968;2023-04-01T04:10:18;9.90;;;9.33;;
17199;SDS011;8716;52.268;20.968;2023-04-01T04:12:49;8.13;;;7.73;;
17199;SDS011;8716;52.268;20.968;2023-04-01T04:15:20;8.90;;;8.40;;
17199;SDS011;8716;52.268;20.968;2023-04-01T04:17:48;14.97;;;8.70;;
17199;SDS011;8716;52.268;20.968;2023-04-01T04:20:17;6.60;;;6.20;;
17199;SDS011;8716;52.268;20.968;2023-04-01T04:22:46;7.33;;;6.93;;
17199;SDS011;8716;52.268;20.968;2023-04-01T04:25:14;8.50;;;7.83;;
17199;SDS011;8716;52.268;20.968;2023-04-01T04:27:44;8.17;;;7.77;;
17199;SDS011;8716;52.268;20.968;2023-04-01T04:30:14;8.33;;;7.90;;
17199;SDS011;8716;52.268;20.968;2023-04-01T04:32:42;7.23;;;6.23;;
17199;SDS011;8716;52.268;20.968;2023-04-01T04:35:11;9.90;;;8.63;;
17199;SDS011;8716;52.268;20.968;2023-04-01T04:37:40;6.60;;;6.20;;
17199;SDS011;8716;52.268;20.968;2023-04-01T04:40:09;10.20;;;9.67;;
17199;SDS011;8716;52.268;20.968;2023-04-01T04:42:38;12.13;;;5.57;;
17199;SDS011;8716;52.268;20.968;2023-04-01T04:45:11;8.93;;;8.07;;
17199;SDS011;8716;52.268;20.968;2023-04-01T04:47:47;10.53;;;9.73;;
17199;SDS011;8716;52.268;20.968;2023-04-01T04:50:16;9.07;;;8.40;;
17199;SDS011;8716;52.268;20.968;2023-04-01T04:52:45;8.93;;;8.43;;
17199;SDS011;8716;52.268;20.968;2023-04-01T04:55:13;7.83;;;7.40;;
17199;SDS011;8716;52.268;20.968;2023-04-01T04:57:45;5.73;;;5.40;;
17199;SDS011;8716;52.268;20.968;2023-04-01T05:00:16;8.03;;;7.63;;
17199;SDS011;8716;52.268;20.968;2023-04-01T05:02:51;8.70;;;7.73;;
17199;SDS011;8716;52.268;20.968;2023-04-01T05:05:19;8.83;;;8.33;;
17199;SDS011;8716;52.268;20.968;2023-04-01T05:07:48;6.17;;;5.83;;
17199;SDS011;8716;52.268;20.968;2023-04-01T05:10:16;5.60;;;4.70;;
17199;SDS011;8716;52.268;20.968;2023-04-01T05:12:45;11.20;;;6.70;;
17199;SDS011;8716;52.268;20.968;2023-04-01T05:15:18;6.83;;;6.47;;
17199;SDS011;8716;52.268;20.968;2023-04-01T05:17:46;7.47;;;7.07;;
17199;SDS011;8716;52.268;20.968;2023-04-01T05:20:17;6.93;;;6.53;;
17199;SDS011;8716;52.268;20.968;2023-04-01T05:22:46;5.50;;;5.20;;
17199;SDS011;8716;52.268;20.968;2023-04-01T05:25:14;9.43;;;5.53;;
17199;SDS011;8716;52.268;20.968;2023-04-01T05:27:43;5.40;;;5.10;;
17199;SDS011;8716;52.268;20.968;2023-04-01T05:30:11;5.00;;;4.70;;
17199;SDS011;8716;52.268;20.968;2023-04-01T05:33:00;7.80;;;7.40;;
17199;SDS011;8716;52.268;20.968;2023-04-01T05:35:29;9.17;;;8.67;;
17199;SDS011;8716;52.268;20.968;2023-04-01T05:37:58;10.53;;;5.93;;
17199;SDS011;8716;52.268;20.968;2023-04-01T05:40:27;8.47;;;6.00;;
17199;SDS011;8716;52.268;20.968;2023-04-01T05:42:55;5.60;;;5.30;;
17199;SDS011;8716;52.268;20.968;2023-04-01T05:45:24;5.50;;;5.20;;
17199;SDS011;8716;52.268;20.968;2023-04-01T05:47:58;8.70;;;5.80;;
17199;SDS011;8716;52.268;20.968;2023-04-01T05:50:34;6.20;;;5.90;;
17199;SDS011;8716;52.268;20.968;2023-04-01T05:53:03;6.03;;;5.73;;
17199;SDS011;8716;52.268;20.968;2023-04-01T05:55:32;5.67;;;5.37;;
17199;SDS011;8716;52.268;20.968;2023-04-01T05:58:02;5.70;;;4.57;;
17199;SDS011;8716;52.268;20.968;2023-04-01T06:00:31;11.00;;;4.83;;
17199;SDS011;8716;52.268;20.968;2023-04-01T06:03:01;5.97;;;5.67;;
17199;SDS011;8716;52.268;20.968;2023-04-01T06:05:30;5.13;;;4.83;;
17199;SDS011;8716;52.268;20.968;2023-04-01T06:08:10;5.70;;;4.63;;
17199;SDS011;8716;52.268;20.968;2023-04-01T06:10:44;6.57;;;5.97;;
17199;SDS011;8716;52.268;20.968;2023-04-01T06:13:23;6.83;;;6.47;;
17199;SDS011;8716;52.268;20.968;2023-04-01T06:16:04;3.40;;;3.20;;
17199;SDS011;8716;52.268;20.968;2023-04-01T06:18:46;6.10;;;5.80;;
17199;SDS011;8716;52.268;20.968;2023-04-01T06:21:42;5.10;;;4.70;;
17199;SDS011;8716;52.268;20.968;2023-04-01T06:24:36;5.00;;;4.70;;
17199;SDS011;8716;52.268;20.968;2023-04-01T06:27:16;5.60;;;5.30;;
17199;SDS011;8716;52.268;20.968;2023-04-01T06:29:58;4.23;;;4.03;;
17199;SDS011;8716;52.268;20.968;2023-04-01T06:32:41;3.20;;;3.00;;
17199;SDS011;8716;52.268;20.968;2023-04-01T06:35:38;3.90;;;3.70;;
17199;SDS011;8716;52.268;20.968;2023-04-01T06:38:24;6.13;;;5.83;;
17199;SDS011;8716;52.268;20.968;2023-04-01T06:41:17;5.10;;;4.80;;
17199;SDS011;8716;52.268;20.968;2023-04-01T06:43:58;4.97;;;4.67;;
17199;SDS011;8716;52.268;20.968;2023-04-01T06:46:52;3.37;;;3.17;;
17199;SDS011;8716;52.268;20.968;2023-04-01T06:49:48;3.53;;;3.33;;
17199;SDS011;8716;52.268;20.968;2023-04-01T06:52:45;7.50;;;4.50;;
17199;SDS011;8716;52.268;20.968;2023-04-01T06:55:40;3.73;;;3.53;;
17199;SDS011;8716;52.268;20.968;2023-04-01T06:58:30;8.70;;;5.03;;
17199;SDS011;8716;52.268;20.968;2023-04-01T07:01:04;5.20;;;4.83;;
17199;SDS011;8716;52.268;20.968;2023-04-01T07:03:38;4.43;;;4.13;;
17199;SDS011;8716;52.268;20.968;2023-04-01T07:06:12;4.17;;;3.93;;
17199;SDS011;8716;52.268;20.968;2023-04-01T07:08:54;5.00;;;4.70;;
17199;SDS011;8716;52.268;20.968;2023-04-01T07:11:51;3.63;;;3.43;;
17199;SDS011;8716;52.268;20.968;2023-04-01T07:14:43;3.90;;;3.77;;
17199;SDS011;8716;52.268;20.968;2023-04-01T07:17:15;3.23;;;2.60;;
17199;SDS011;8716;52.268;20.968;2023-04-01T07:19:46;6.30;;;2.40;;
17199;SDS011;8716;52.268;20.968;2023-04-01T07:22:24;4.27;;;4.00;;
17199;SDS011;8716;52.268;20.968;2023-04-01T07:25:13;4.17;;;3.93;;
17199;SDS011;8716;52.268;20.968;2023-04-01T07:27:52;6.30;;;4.20;;
17199;SDS011;8716;52.268;20.968;2023-04-01T07:30:24;4.10;;;3.90;;
17199;SDS011;8716;52.268;20.968;2023-04-01T07:32:57;6.03;;;4.70;;
17199;SDS011;8716;52.268;20.968;2023-04-01T07:35:33;5.77;;;5.47;;
17199;SDS011;8716;52.268;20.968;2023-04-01T07:38:09;4.63;;;4.33;;
17199;SDS011;8716;52.268;20.968;2023-04-01T07:40:47;4.83;;;4.53;;
17199;SDS011;8716;52.268;20.968;2023-04-01T07:43:30;6.87;;;6.47;;
17199;SDS011;8716;52.268;20.968;2023-04-01T07:46:22;6.77;;;6.37;;
17199;SDS011;8716;52.268;20.968;2023-04-01T07:49:06;6.10;;;5.77;;
17199;SDS011;8716;52.268;20.968;2023-04-01T07:51:44;6.80;;;6.40;;
17199;SDS011;8716;52.268;20.968;2023-04-01T07:54:19;10.80;;;10.20;;
17199;SDS011;8716;52.268;20.968;2023-04-01T07:56:57;8.67;;;8.20;;
17199;SDS011;8716;52.268;20.968;2023-04-01T07:59:47;6.83;;;6.43;;
17199;SDS011;8716;52.268;20.968;2023-04-01T08:02:28;10.07;;;9.57;;
17199;SDS011;8716;52.268;20.968;2023-04-01T08:05:11;13.13;;;12.43;;
17199;SDS011;8716;52.268;20.968;2023-04-01T08:07:49;12.73;;;10.13;;
17199;SDS011;8716;52.268;20.968;2023-04-01T08:10:45;9.50;;;8.80;;
17199;SDS011;8716;52.268;20.968;2023-04-01T08:13:39;8.80;;;8.20;;
17199;SDS011;8716;52.268;20.968;2023-04-01T08:16:35;10.13;;;8.27;;
17199;SDS011;8716;52.268;20.968;2023-04-01T08:19:15;11.70;;;10.73;;
17199;SDS011;8716;52.268;20.968;2023-04-01T08:21:56;7.30;;;6.90;;
17199;SDS011;8716;52.268;20.968;2023-04-01T08:24:33;7.60;;;6.40;;
17199;SDS011;8716;52.268;20.968;2023-04-01T08:27:21;7.40;;;6.53;;
17199;SDS011;8716;52.268;20.968;2023-04-01T08:29:57;11.27;;;8.17;;
17199;SDS011;8716;52.268;20.968;2023-04-01T08:32:32;8.33;;;7.90;;
17199;SDS011;8716;52.268;20.968;2023-04-01T08:35:09;7.67;;;7.27;;
17199;SDS011;8716;52.268;20.968;2023-04-01T08:37:45;7.97;;;7.57;;
17199;SDS011;8716;52.268;20.968;2023-04-01T08:43:15;6.07;;;5.73;;
17199;SDS011;8716;52.268;20.968;2023-04-01T08:45:59;11.73;;;7.77;;
17199;SDS011;8716;52.268;20.968;2023-04-01T08:48:48;7.77;;;6.57;;
17199;SDS011;8716;52.268;20.968;2023-04-01T08:51:38;7.97;;;7.57;;
17199;SDS011;8716;52.268;20.968;2023-04-01T08:54:33;9.17;;;8.67;;
17199;SDS011;8716;52.268;20.968;2023-04-01T08:57:20;5.03;;;4.67;;
17199;SDS011;8716;52.268;20.968;2023-04-01T09:00:20;9.00;;;8.50;;
17199;SDS011;8716;52.268;20.968;2023-04-01T09:03:20;3.83;;;3.63;;
17199;SDS011;8716;52.268;20.968;2023-04-01T09:06:26;6.33;;;4.67;;
17199;SDS011;8716;52.268;20.968;2023-04-01T09:09:08;5.57;;;5.30;;
17199;SDS011;8716;52.268;20.968;2023-04-01T09:12:02;5.07;;;4.77;;
17199;SDS011;8716;52.268;20.968;2023-04-01T09:15:01;5.63;;;5.33;;
17199;SDS011;8716;52.268;20.968;2023-04-01T09:18:02;7.50;;;7.10;;
17199;SDS011;8716;52.268;20.968;2023-04-01T09:20:47;9.53;;;9.03;;
17199;SDS011;8716;52.268;20.968;2023-04-01T09:23:43;7.37;;;6.97;;
17199;SDS011;8716;52.268;20.968;2023-04-01T09:26:39;6.73;;;6.33;;
17199;SDS011;8716;52.268;20.968;2023-04-01T09:29:41;5.43;;;5.13;;
17199;SDS011;8716;52.268;20.968;2023-04-01T09:32:38;5.57;;;5.27;;
17199;SDS011;8716;52.268;20.968;2023-04-01T09:35:24;3.77;;;3.57;;
17199;SDS011;8716;52.268;20.968;2023-04-01T09:38:17;3.57;;;3.37;;
17199;SDS011;8716;52.268;20.968;2023-04-01T09:40:54;4.50;;;4.20;;
17199;SDS011;8716;52.268;20.968;2023-04-01T09:43:44;3.53;;;2.90;;
17199;SDS011;8716;52.268;20.968;2023-04-01T09:46:27;4.13;;;3.90;;
17199;SDS011;8716;52.268;20.968;2023-04-01T09:52:09;5.10;;;4.80;;
17199;SDS011;8716;52.268;20.968;2023-04-01T09:54:51;4.10;;;3.90;;
17199;SDS011;8716;52.268;20.968;2023-04-01T09:57:48;6.20;;;5.87;;
17199;SDS011;8716;52.268;20.968;2023-04-01T10:01:25;4.20;;;3.70;;
17199;SDS011;8716;52.268;20.968;2023-04-01T10:04:40;5.70;;;4.70;;
17199;SDS011;8716;52.268;20.968;2023-04-01T10:10:41;6.37;;;4.37;;
17199;SDS011;8716;52.268;20.968;2023-04-01T10:16:42;4.63;;;4.33;;
17199;SDS011;8716;52.268;20.968;2023-04-01T10:29:24;3.33;;;3.13;;
17199;SDS011;8716;52.268;20.968;2023-04-01T10:38:28;3.70;;;3.00;;
17199;SDS011;8716;52.268;20.968;2023-04-01T10:41:27;2.97;;;2.77;;
17199;SDS011;8716;52.268;20.968;2023-04-01T10:44:56;4.40;;;4.10;;
17199;SDS011;8716;52.268;20.968;2023-04-01T10:50:50;4.13;;;3.90;;
17199;SDS011;8716;52.268;20.968;2023-04-01T10:54:03;4.90;;;4.60;;
17199;SDS011;8716;52.268;20.968;2023-04-01T10:57:25;3.40;;;3.20;;
17199;SDS011;8716;52.268;20.968;2023-04-01T11:00:53;6.03;;;3.40;;
17199;SDS011;8716;52.268;20.968;2023-04-01T11:04:36;4.83;;;4.53;;
17199;SDS011;8716;52.268;20.968;2023-04-01T11:14:19;4.80;;;4.50;;
17199;SDS011;8716;52.268;20.968;2023-04-01T11:17:21;8.93;;;4.33;;
17199;SDS011;8716;52.268;20.968;2023-04-01T11:20:14;4.83;;;4.53;;
17199;SDS011;8716;52.268;20.968;2023-04-01T11:26:31;4.53;;;4.23;;
17199;SDS011;8716;52.268;20.968;2023-04-01T11:29:42;5.77;;;5.47;;
17199;SDS011;8716;52.268;20.968;2023-04-01T11:32:34;5.20;;;4.90;;
17199;SDS011;8716;52.268;20.968;2023-04-01T11:38:24;6.03;;;5.37;;
17199;SDS011;8716;52.268;20.968;2023-04-01T11:41:23;5.57;;;5.20;;
17199;SDS011;8716;52.268;20.968;2023-04-01T11:44:21;4.83;;;4.53;;
17199;SDS011;8716;52.268;20.968;2023-04-01T11:47:13;5.30;;;4.30;;
17199;SDS011;8716;52.268;20.968;2023-04-01T11:49:56;3.90;;;3.70;;
17199;SDS011;8716;52.268;20.968;2023-04-01T11:52:51;5.10;;;4.80;;
17199;SDS011;8716;52.268;20.968;2023-04-01T11:55:35;3.30;;;3.10;;
17199;SDS011;8716;52.268;20.968;2023-04-01T12:01:07;4.87;;;4.57;;
17199;SDS011;8716;52.268;20.968;2023-04-01T12:04:15;4.00;;;3.80;;
17199;SDS011;8716;52.268;20.968;2023-04-01T12:07:06;5.67;;;3.40;;
17199;SDS011;8716;52.268;20.968;2023-04-01T12:09:47;3.13;;;2.93;;
17199;SDS011;8716;52.268;20.968;2023-04-01T12:12:26;2.93;;;2.73;;
17199;SDS011;8716;52.268;20.968;2023-04-01T12:15:13;2.87;;;2.67;;
17199;SDS011;8716;52.268;20.968;2023-04-01T12:17:50;2.73;;;2.53;;
17199;SDS011;8716;52.268;20.968;2023-04-01T12:20:30;3.13;;;2.77;;
17199;SDS011;8716;52.268;20.968;2023-04-01T12:23:09;3.03;;;2.83;;
17199;SDS011;8716;52.268;20.968;2023-04-01T12:25:57;2.47;;;2.27;;
17199;SDS011;8716;52.268;20.968;2023-04-01T12:28:37;2.70;;;2.50;;
17199;SDS011;8716;52.268;20.968;2023-04-01T12:31:19;2.70;;;2.50;;
17199;SDS011;8716;52.268;20.968;2023-04-01T12:36:56;4.23;;;3.20;;
17199;SDS011;8716;52.268;20.968;2023-04-01T12:39:44;2.50;;;2.30;;
17199;SDS011;8716;52.268;20.968;2023-04-01T12:42:33;4.40;;;4.10;;
17199;SDS011;8716;52.268;20.968;2023-04-01T12:45:23;3.00;;;2.80;;
17199;SDS011;8716;52.268;20.968;2023-04-01T12:54:31;2.67;;;2.47;;
17199;SDS011;8716;52.268;20.968;2023-04-01T13:00:38;3.13;;;2.93;;
17199;SDS011;8716;52.268;20.968;2023-04-01T13:03:25;2.87;;;2.67;;
17199;SDS011;8716;52.268;20.968;2023-04-01T13:06:17;3.00;;;2.80;;
17199;SDS011;8716;52.268;20.968;2023-04-01T13:08:55;3.70;;;2.90;;
17199;SDS011;8716;52.268;20.968;2023-04-01T13:11:38;3.60;;;3.40;;
17199;SDS011;8716;52.268;20.968;2023-04-01T13:14:23;4.53;;;4.23;;
17199;SDS011;8716;52.268;20.968;2023-04-01T13:17:02;6.27;;;5.93;;
17199;SDS011;8716;52.268;20.968;2023-04-01T13:19:39;4.83;;;4.53;;
17199;SDS011;8716;52.268;20.968;2023-04-01T13:22:31;3.30;;;3.10;;
17199;SDS011;8716;52.268;20.968;2023-04-01T13:25:09;2.97;;;2.77;;
17199;SDS011;8716;52.268;20.968;2023-04-01T13:27:49;3.30;;;2.83;;
17199;SDS011;8716;52.268;20.968;2023-04-01T13:30:24;4.37;;;3.33;;
17199;SDS011;8716;52.268;20.968;2023-04-01T13:32:59;4.23;;;3.60;;
17199;SDS011;8716;52.268;20.968;2023-04-01T13:35:35;3.50;;;3.30;;
17199;SDS011;8716;52.268;20.968;2023-04-01T13:38:17;2.93;;;2.73;;
17199;SDS011;8716;52.268;20.968;2023-04-01T13:41:07;3.20;;;3.00;;
17199;SDS011;8716;52.268;20.968;2023-04-01T13:43:43;3.30;;;3.10;;
17199;SDS011;8716;52.268;20.968;2023-04-01T13:46:22;2.60;;;2.40;;
17199;SDS011;8716;52.268;20.968;2023-04-01T13:49:17;3.57;;;3.37;;
17199;SDS011;8716;52.268;20.968;2023-04-01T13:52:16;2.90;;;2.70;;
17199;SDS011;8716;52.268;20.968;2023-04-01T13:58:17;4.30;;;4.03;;
17199;SDS011;8716;52.268;20.968;2023-04-01T14:01:02;5.83;;;3.37;;
17199;SDS011;8716;52.268;20.968;2023-04-01T14:03:42;3.47;;;3.27;;
17199;SDS011;8716;52.268;20.968;2023-04-01T14:06:27;3.37;;;3.17;;
17199;SDS011;8716;52.268;20.968;2023-04-01T14:09:06;3.00;;;2.80;;
17199;SDS011;8716;52.268;20.968;2023-04-01T14:11:48;4.80;;;4.53;;
17199;SDS011;8716;52.268;20.968;2023-04-01T14:14:30;3.03;;;2.80;;
17199;SDS011;8716;52.268;20.968;2023-04-01T14:17:16;2.67;;;2.47;;
17199;SDS011;8716;52.268;20.968;2023-04-01T14:25:50;2.73;;;2.53;;
17199;SDS011;8716;52.268;20.968;2023-04-01T14:28:32;3.80;;;3.17;;
17199;SDS011;8716;52.268;20.968;2023-04-01T14:31:16;3.03;;;2.73;;
17199;SDS011;8716;52.268;20.968;2023-04-01T14:33:57;6.93;;;2.80;;
17199;SDS011;8716;52.268;20.968;2023-04-01T14:36:35;2.47;;;2.27;;
17199;SDS011;8716;52.268;20.968;2023-04-01T14:39:22;3.23;;;3.03;;
17199;SDS011;8716;52.268;20.968;2023-04-01T14:42:09;3.13;;;2.93;;
17199;SDS011;8716;52.268;20.968;2023-04-01T14:45:02;3.23;;;3.03;;
17199;SDS011;8716;52.268;20.968;2023-04-01T14:47:48;4.07;;;3.70;;
17199;SDS011;8716;52.268;20.968;2023-04-01T14:50:22;2.83;;;2.63;;
17199;SDS011;8716;52.268;20.968;2023-04-01T14:52:59;5.60;;;2.63;;
17199;SDS011;8716;52.268;20.968;2023-04-01T14:55:45;6.77;;;4.73;;
17199;SDS011;8716;52.268;20.968;2023-04-01T14:58:18;3.93;;;3.70;;
17199;SDS011;8716;52.268;20.968;2023-04-01T15:00:52;5.93;;;4.30;;
17199;SDS011;8716;52.268;20.968;2023-04-01T15:03:29;6.40;;;3.53;;
17199;SDS011;8716;52.268;20.968;2023-04-01T15:06:22;3.07;;;2.87;;
17199;SDS011;8716;52.268;20.968;2023-04-01T15:09:14;3.53;;;3.33;;
17199;SDS011;8716;52.268;20.968;2023-04-01T15:11:54;3.40;;;3.20;;
17199;SDS011;8716;52.268;20.968;2023-04-01T15:14:41;3.63;;;3.43;;
17199;SDS011;8716;52.268;20.968;2023-04-01T15:17:31;3.83;;;3.63;;
17199;SDS011;8716;52.268;20.968;2023-04-01T15:20:21;5.60;;;4.30;;
17199;SDS011;8716;52.268;20.968;2023-04-01T15:23:02;2.93;;;2.73;;
17199;SDS011;8716;52.268;20.968;2023-04-01T15:25:45;3.03;;;2.83;;
17199;SDS011;8716;52.268;20.968;2023-04-01T15:28:31;4.47;;;3.70;;
17199;SDS011;8716;52.268;20.968;2023-04-01T15:31:11;3.50;;;3.30;;
17199;SDS011;8716;52.268;20.968;2023-04-01T15:33:48;2.63;;;2.43;;
17199;SDS011;8716;52.268;20.968;2023-04-01T15:36:34;3.50;;;3.30;;
17199;SDS011;8716;52.268;20.968;2023-04-01T15:39:12;2.83;;;2.63;;
17199;SDS011;8716;52.268;20.968;2023-04-01T15:41:45;3.37;;;3.17;;
17199;SDS011;8716;52.268;20.968;2023-04-01T15:44:36;3.53;;;3.33;;
17199;SDS011;8716;52.268;20.968;2023-04-01T15:47:27;2.53;;;2.33;;
17199;SDS011;8716;52.268;20.968;2023-04-01T15:50:06;4.07;;;2.63;;
17199;SDS011;8716;52.268;20.968;2023-04-01T15:52:59;2.63;;;2.43;;
17199;SDS011;8716;52.268;20.968;2023-04-01T15:55:40;3.40;;;3.20;;
17199;SDS011;8716;52.268;20.968;2023-04-01T15:58:27;3.10;;;2.90;;
17199;SDS011;8716;52.268;20.968;2023-04-01T16:01:12;3.37;;;3.17;;
17199;SDS011;8716;52.268;20.968;2023-04-01T16:03:54;3.07;;;2.87;;
17199;SDS011;8716;52.268;20.968;2023-04-01T16:06:32;3.30;;;3.10;;
17199;SDS011;8716;52.268;20.968;2023-04-01T16:09:22;3.80;;;2.37;;
17199;SDS011;8716;52.268;20.968;2023-04-01T16:12:01;3.00;;;2.80;;
17199;SDS011;8716;52.268;20.968;2023-04-01T16:14:37;2.20;;;2.00;;
17199;SDS011;8716;52.268;20.968;2023-04-01T16:17:16;2.87;;;2.67;;
17199;SDS011;8716;52.268;20.968;2023-04-01T16:19:55;2.93;;;2.73;;
17199;SDS011;8716;52.268;20.968;2023-04-01T16:22:29;10.33;;;3.40;;
17199;SDS011;8716;52.268;20.968;2023-04-01T16:25:14;5.17;;;3.13;;
17199;SDS011;8716;52.268;20.968;2023-04-01T16:27:52;3.40;;;3.20;;
17199;SDS011;8716;52.268;20.968;2023-04-01T16:30:27;2.80;;;2.60;;
17199;SDS011;8716;52.268;20.968;2023-04-01T16:33:03;4.33;;;4.03;;
17199;SDS011;8716;52.268;20.968;2023-04-01T16:35:44;3.40;;;3.20;;
17199;SDS011;8716;52.268;20.968;2023-04-01T16:38:16;3.30;;;2.30;;
17199;SDS011;8716;52.268;20.968;2023-04-01T16:40:52;3.67;;;3.03;;
17199;SDS011;8716;52.268;20.968;2023-04-01T16:43:38;3.03;;;2.67;;
17199;SDS011;8716;52.268;20.968;2023-04-01T16:46:16;4.67;;;3.03;;
17199;SDS011;8716;52.268;20.968;2023-04-01T16:48:59;3.20;;;3.00;;
17199;SDS011;8716;52.268;20.968;2023-04-01T16:51:36;2.50;;;2.30;;
17199;SDS011;8716;52.268;20.968;2023-04-01T16:54:13;2.33;;;2.13;;
17199;SDS011;8716;52.268;20.968;2023-04-01T16:56:47;4.43;;;4.13;;
17199;SDS011;8716;52.268;20.968;2023-04-01T16:59:21;3.20;;;3.00;;
17199;SDS011;8716;52.268;20.968;2023-04-01T17:01:55;2.90;;;2.37;;
17199;SDS011;8716;52.268;20.968;2023-04-01T17:04:32;3.20;;;2.53;;
17199;SDS011;8716;52.268;20.968;2023-04-01T17:07:11;2.50;;;2.30;;
17199;SDS011;8716;52.268;20.968;2023-04-01T17:09:56;3.50;;;3.30;;
17199;SDS011;8716;52.268;20.968;2023-04-01T17:12:54;2.90;;;2.70;;
17199;SDS011;8716;52.268;20.968;2023-04-01T17:15:35;3.30;;;3.10;;
17199;SDS011;8716;52.268;20.968;2023-04-01T17:18:11;2.93;;;2.73;;